This is the latest recevied weather packets stored in our database for station/object JE9BHE-13. If no packets are shown the sender has not sent any weather packets the latest 10 day(s).
| Time | Temp. | Humidity | Pressure | Rain* | Wind** | Luminosity | Snow |
|---|---|---|---|---|---|---|---|
| 1777992487 | 16.67° C | 58% | 1021.4 hPa | 0 mm | - | - | - |
| 1777992306 | 16.67° C | 59% | 1021.5 hPa | 0 mm | - | - | - |
| 1777991767 | 16.67° C | 58% | 1021.8 hPa | 0 mm | - | - | - |
| 1777991587 | 16.67° C | 59% | 1021.4 hPa | 0 mm | - | - | - |
| 1777989967 | 17.22° C | 59% | 1021.3 hPa | 0 mm | - | - | - |
| 1777989248 | 16.67° C | 60% | 1021.3 hPa | 0 mm | - | - | - |
| 1777988886 | 16.67° C | 60% | 1021.4 hPa | 0 mm | - | - | - |
| 1777988347 | 16.67° C | 61% | 1021.6 hPa | 0 mm | - | - | - |
| 1777986367 | 16.11° C | 62% | 1022 hPa | 0 mm | - | - | - |
| 1777983126 | 11.67° C | 83% | 1022 hPa | 0 mm | - | - | - |
| 1777982047 | 11.67° C | 79% | 1021.9 hPa | 0 mm | - | - | - |
| 1777977548 | 13.89° C | 67% | 1021.2 hPa | 0 mm | - | - | - |
| 1777977007 | 14.44° C | 66% | 1021.5 hPa | 0 mm | - | - | - |
| 1777975208 | 15.56° C | 59% | 1021.3 hPa | 0 mm | - | - | - |
| 1777975026 | 15.56° C | 59% | 1021.3 hPa | 0 mm | - | - | - |
| 1777971607 | 18.33° C | 42% | 1021.1 hPa | 0 mm | - | - | - |
| 1777970708 | 18.89° C | 41% | 1020.7 hPa | 0 mm | - | - | - |
| 1777969809 | 19.44° C | 40% | 1020.7 hPa | 0 mm | - | - | - |
| 1777967107 | 20° C | 41% | 1020.8 hPa | 0 mm | - | - | - |
| 1777966207 | 20° C | 36% | 1021.1 hPa | 0 mm | - | - | - |
| 1777965487 | 20.56° C | 36% | 1020.8 hPa | 0 mm | - | - | - |
| 1777964586 | 20.56° C | 37% | 1021 hPa | 0 mm | - | - | - |
| 1777964407 | 20.56° C | 38% | 1020.9 hPa | 0 mm | - | - | - |
| 1777962247 | 20.56° C | 35% | 1020.9 hPa | 0 mm | - | - | - |
| 1777960626 | 21.11° C | 34% | 1020.6 hPa | 0 mm | - | - | - |
* Rain latest hour (hover to see other rain measurements)
** Current wind speed in m/s (hover to see current wind gust speed)